Time;durP1;ratioP1;P1;durP2;ratioP2;P2;SDS_P1;SDS_P2;PMS_P1;PMS_P2;Temp;Humidity;BMP_temperature;BMP_pressure;BME280_temperature;BME280_humidity;BME280_pressure;Samples;Min_cycle;Max_cycle;Signal;HPM_P1;HPM_P2
2023/08/13 00:00:15;;;;;;;8.15;3.40;;;20.20;99.90;;;;;;5074501;28;20647;-63
2023/08/13 00:02:44;;;;;;;7.03;3.80;;;20.10;99.90;;;;;;5084442;28;20196;-63
2023/08/13 00:05:12;;;;;;;10.70;3.90;;;20.10;99.90;;;;;;5075015;28;20201;-63
2023/08/13 00:07:40;;;;;;;7.47;3.65;;;20.00;99.90;;;;;;5085343;28;20265;-62
2023/08/13 00:10:09;;;;;;;5.78;3.67;;;20.00;99.90;;;;;;5074195;28;20243;-63
2023/08/13 00:12:38;;;;;;;10.18;3.95;;;20.00;99.90;;;;;;5085349;28;20203;-63
2023/08/13 00:15:07;;;;;;;7.93;3.90;;;20.00;99.90;;;;;;5080444;28;20204;-62
2023/08/13 00:17:35;;;;;;;8.70;3.92;;;20.00;99.90;;;;;;5077464;28;20733;-63
2023/08/13 00:20:03;;;;;;;7.25;3.60;;;19.90;99.90;;;;;;5087587;28;20196;-63
2023/08/13 00:22:31;;;;;;;14.77;3.83;;;19.90;99.90;;;;;;5078264;28;20254;-63
2023/08/13 00:24:59;;;;;;;5.32;3.30;;;19.90;99.90;;;;;;5085597;28;20302;-63
2023/08/13 00:27:26;;;;;;;11.10;3.63;;;19.80;99.90;;;;;;5087056;28;20283;-63
2023/08/13 00:29:56;;;;;;;18.17;4.20;;;19.80;99.90;;;;;;5078225;28;20313;-62
2023/08/13 00:32:24;;;;;;;8.15;3.53;;;19.80;99.90;;;;;;5061739;28;20232;-63
2023/08/13 00:34:51;;;;;;;9.45;3.60;;;19.80;99.90;;;;;;5086580;28;20668;-63
2023/08/13 00:37:19;;;;;;;10.00;3.55;;;19.80;99.90;;;;;;5085547;28;20283;-63
2023/08/13 00:39:47;;;;;;;6.97;3.33;;;19.80;99.90;;;;;;5078938;28;20303;-63
2023/08/13 00:42:15;;;;;;;7.78;3.20;;;19.80;99.90;;;;;;5090904;28;20208;-63
2023/08/13 00:44:43;;;;;;;4.88;2.90;;;19.80;99.90;;;;;;5080154;28;20224;-61
2023/08/13 00:47:13;;;;;;;9.13;3.22;;;19.80;99.90;;;;;;5083701;28;20239;-63
2023/08/13 00:49:41;;;;;;;8.00;3.60;;;19.80;99.90;;;;;;5088299;28;20272;-63
2023/08/13 00:52:09;;;;;;;3.20;2.60;;;19.70;99.90;;;;;;5077102;28;20205;-63
2023/08/13 00:54:36;;;;;;;6.68;2.88;;;19.70;99.90;;;;;;5088127;28;20703;-63
2023/08/13 00:57:05;;;;;;;12.50;3.28;;;19.70;99.90;;;;;;5083379;28;20200;-63
2023/08/13 00:59:33;;;;;;;3.75;3.00;;;19.70;99.90;;;;;;5080713;28;20235;-62
2023/08/13 01:02:01;;;;;;;4.70;2.72;;;19.60;99.90;;;;;;5090740;28;20284;-63
2023/08/13 01:04:30;;;;;;;4.85;3.45;;;19.60;99.90;;;;;;5077437;28;20661;-62
2023/08/13 01:07:02;;;;;;;5.05;2.90;;;19.60;99.90;;;;;;5082128;28;20201;-63
2023/08/13 01:09:34;;;;;;;7.15;2.63;;;19.60;99.90;;;;;;5080739;28;20311;-63
2023/08/13 01:12:06;;;;;;;7.75;2.88;;;19.60;99.90;;;;;;5091113;28;20654;-63
2023/08/13 01:14:39;;;;;;;4.10;2.65;;;19.60;99.90;;;;;;5078806;28;20244;-63
2023/08/13 01:17:07;;;;;;;14.30;3.03;;;19.50;99.90;;;;;;5083875;28;20279;-63
2023/08/13 01:19:37;;;;;;;13.88;3.05;;;19.50;99.90;;;;;;5087029;28;20291;-63
2023/08/13 01:22:05;;;;;;;7.10;2.95;;;19.50;99.90;;;;;;5076828;28;20246;-64
2023/08/13 01:24:34;;;;;;;13.43;3.70;;;19.40;99.90;;;;;;5088268;28;20273;-63
2023/08/13 01:27:06;;;;;;;6.45;3.00;;;19.40;99.90;;;;;;5082507;28;20261;-63
2023/08/13 01:29:38;;;;;;;9.98;3.22;;;19.30;99.90;;;;;;5079656;28;20222;-62
2023/08/13 01:32:06;;;;;;;6.13;2.45;;;19.30;99.90;;;;;;5089662;28;20230;-63
2023/08/13 01:34:34;;;;;;;6.70;2.70;;;19.30;99.90;;;;;;5077524;28;20224;-63
2023/08/13 01:37:02;;;;;;;5.35;2.58;;;19.30;99.90;;;;;;5083995;28;20232;-62
2023/08/13 01:39:30;;;;;;;3.65;3.10;;;19.30;99.90;;;;;;5085962;28;20212;-62
2023/08/13 01:42:00;;;;;;;9.82;2.80;;;19.20;99.90;;;;;;5076276;28;20575;-62
2023/08/13 01:44:28;;;;;;;4.53;2.88;;;19.20;99.90;;;;;;5088593;28;20259;-63
2023/08/13 01:46:55;;;;;;;5.32;2.45;;;19.20;99.90;;;;;;5080950;28;20675;-63
2023/08/13 01:49:24;;;;;;;4.22;2.85;;;19.20;99.90;;;;;;5080972;28;20278;-63
2023/08/13 01:51:51;;;;;;;7.45;2.85;;;19.20;99.90;;;;;;5088858;28;20207;-63
2023/08/13 01:54:19;;;;;;;2.30;2.20;;;19.10;99.90;;;;;;5075810;28;20219;-63
2023/08/13 01:56:47;;;;;;;7.40;2.35;;;19.10;99.90;;;;;;5085852;28;20288;-62
2023/08/13 01:59:16;;;;;;;9.90;2.88;;;19.10;99.90;;;;;;5083536;28;20228;-62
2023/08/13 02:01:44;;;;;;;4.68;2.50;;;19.10;99.90;;;;;;5077753;28;20196;-63
2023/08/13 02:04:12;;;;;;;7.45;2.42;;;19.10;99.90;;;;;;5089079;28;20285;-63
2023/08/13 02:06:40;;;;;;;7.00;2.35;;;19.00;99.90;;;;;;5071799;28;20228;-63
2023/08/13 02:09:08;;;;;;;5.72;2.50;;;19.00;99.90;;;;;;5082050;28;20292;-62
2023/08/13 02:11:36;;;;;;;8.45;2.58;;;19.00;99.90;;;;;;5078619;28;20597;-64
2023/08/13 02:14:04;;;;;;;6.07;2.63;;;19.00;99.90;;;;;;5088911;28;20255;-64
2023/08/13 02:16:33;;;;;;;2.97;2.20;;;19.00;99.90;;;;;;5076961;28;20650;-61
2023/08/13 02:19:01;;;;;;;5.13;2.10;;;19.00;99.90;;;;;;5083472;28;20204;-62
2023/08/13 02:21:29;;;;;;;6.03;2.22;;;18.90;99.90;;;;;;5085253;28;20196;-62
2023/08/13 02:23:57;;;;;;;5.40;2.00;;;18.90;99.90;;;;;;5075699;28;20260;-61
2023/08/13 02:26:25;;;;;;;7.72;2.63;;;18.90;99.90;;;;;;5076053;28;20224;-63
2023/08/13 02:28:53;;;;;;;6.63;2.53;;;18.90;99.90;;;;;;5084502;28;20228;-63
2023/08/13 02:31:21;;;;;;;12.15;2.28;;;18.90;99.90;;;;;;5083762;28;20270;-62
2023/08/13 02:33:50;;;;;;;5.10;2.03;;;18.80;99.90;;;;;;5076583;28;20220;-63
2023/08/13 02:36:18;;;;;;;3.13;2.38;;;18.80;99.90;;;;;;5088472;28;20228;-62
2023/08/13 02:38:46;;;;;;;6.72;2.22;;;18.80;99.90;;;;;;5075831;28;20200;-63
2023/08/13 02:41:14;;;;;;;3.83;2.40;;;18.80;99.90;;;;;;5071998;28;20201;-63
2023/08/13 02:43:51;;;;;;;10.25;2.08;;;18.80;99.90;;;;;;5086029;28;20678;-63
2023/08/13 02:46:19;;;;;;;3.88;2.38;;;18.80;99.90;;;;;;5074993;28;20192;-62
2023/08/13 02:48:47;;;;;;;10.30;2.47;;;18.80;99.90;;;;;;5084697;28;20688;-62
2023/08/13 02:51:17;;;;;;;4.00;2.22;;;18.80;99.90;;;;;;5082767;28;20680;-62
2023/08/13 02:53:45;;;;;;;8.55;2.33;;;18.80;99.90;;;;;;5076789;28;20216;-63
2023/08/13 02:56:12;;;;;;;7.78;2.28;;;18.80;99.90;;;;;;5088332;28;20204;-62
2023/08/13 02:58:40;;;;;;;19.52;2.30;;;18.80;99.90;;;;;;5077699;28;20809;-64
2023/08/13 03:01:09;;;;;;;15.63;2.28;;;18.80;99.90;;;;;;5081847;28;20278;-64
2023/08/13 03:03:37;;;;;;;4.97;2.47;;;18.80;99.90;;;;;;5085545;28;20277;-62
2023/08/13 03:06:18;;;;;;;4.50;2.28;;;18.80;99.90;;;;;;5072020;28;20215;-63
2023/08/13 03:08:46;;;;;;;9.25;2.22;;;18.80;99.90;;;;;;5078321;28;20235;-63
2023/08/13 03:11:14;;;;;;;12.13;2.53;;;18.80;99.90;;;;;;5080907;28;20252;-62
2023/08/13 03:13:42;;;;;;;10.88;2.38;;;18.80;99.90;;;;;;5085351;28;20255;-60
2023/08/13 03:16:10;;;;;;;7.90;2.70;;;18.80;99.90;;;;;;5074962;28;20250;-62
2023/08/13 03:18:38;;;;;;;12.20;2.50;;;18.80;99.90;;;;;;5086123;28;20193;-61
2023/08/13 03:21:06;;;;;;;6.18;2.65;;;18.80;99.90;;;;;;5071627;28;20232;-61
2023/08/13 03:23:35;;;;;;;6.03;2.30;;;18.80;99.90;;;;;;5071365;28;20224;-61
2023/08/13 03:26:03;;;;;;;7.63;2.63;;;18.80;99.90;;;;;;5087939;28;20249;-61
2023/08/13 03:28:31;;;;;;;9.38;2.50;;;18.80;99.90;;;;;;5076202;28;20873;-62
2023/08/13 03:31:00;;;;;;;6.20;2.67;;;18.80;99.90;;;;;;5083063;28;20268;-61
2023/08/13 03:33:28;;;;;;;7.57;2.70;;;18.80;99.90;;;;;;5083949;28;20322;-61
2023/08/13 03:35:56;;;;;;;5.63;2.63;;;18.80;99.90;;;;;;5074617;28;20197;-63
2023/08/13 03:38:24;;;;;;;10.68;2.50;;;18.80;99.90;;;;;;5087716;28;20205;-63
2023/08/13 03:40:56;;;;;;;12.55;2.63;;;18.80;99.90;;;;;;5078924;28;20256;-62
2023/08/13 03:43:24;;;;;;;16.83;3.00;;;18.80;99.90;;;;;;5105517;22;20315;-57
2023/08/13 03:45:51;;;;;;;7.85;2.20;;;18.80;99.90;;;;;;5090446;28;20675;-57
2023/08/13 03:48:19;;;;;;;5.50;2.80;;;18.80;99.90;;;;;;5091107;28;20192;-56
2023/08/13 03:50:47;;;;;;;7.20;2.70;;;18.80;99.90;;;;;;5091270;28;20256;-58
2023/08/13 03:53:15;;;;;;;8.68;2.50;;;18.90;99.90;;;;;;5090768;28;20235;-57
2023/08/13 03:55:43;;;;;;;8.20;2.50;;;18.90;99.90;;;;;;5106097;28;20227;-58
2023/08/13 03:58:12;;;;;;;5.80;2.80;;;18.90;99.90;;;;;;5098252;28;20665;-59
2023/08/13 04:00:40;;;;;;;6.47;2.78;;;18.90;99.90;;;;;;5109311;28;20227;-56
2023/08/13 04:03:09;;;;;;;3.85;3.20;;;18.90;99.90;;;;;;5104808;28;20290;-58
2023/08/13 04:05:52;;;;;;;7.63;2.70;;;18.90;99.90;;;;;;5098707;28;20575;-57
2023/08/13 04:08:20;;;;;;;5.93;2.63;;;18.90;99.90;;;;;;5098032;28;20232;-57
2023/08/13 04:10:48;;;;;;;4.70;2.65;;;18.90;99.90;;;;;;5108128;28;20303;-57
2023/08/13 04:13:18;;;;;;;5.05;3.03;;;18.90;99.90;;;;;;5105637;28;20230;-56
2023/08/13 04:15:46;;;;;;;6.47;3.00;;;18.90;99.90;;;;;;5099317;28;20732;-57
2023/08/13 04:18:14;;;;;;;7.63;3.00;;;18.90;99.90;;;;;;5111186;28;20204;-61
2023/08/13 04:20:42;;;;;;;12.57;3.25;;;18.90;99.90;;;;;;5101203;28;20227;-56
2023/08/13 04:23:10;;;;;;;12.20;3.20;;;18.90;99.90;;;;;;5104518;28;20265;-57
2023/08/13 04:25:38;;;;;;;9.48;3.10;;;18.90;99.90;;;;;;5108664;28;20227;-57
2023/08/13 04:28:07;;;;;;;11.48;2.97;;;18.90;99.90;;;;;;5097841;28;20265;-58
2023/08/13 04:30:36;;;;;;;10.27;2.72;;;18.90;99.90;;;;;;5109390;28;20283;-59
2023/08/13 04:33:04;;;;;;;13.63;2.88;;;18.90;99.90;;;;;;5103512;28;20203;-59
2023/08/13 04:35:32;;;;;;;12.50;3.05;;;18.90;99.90;;;;;;5101210;28;20243;-58
2023/08/13 04:38:00;;;;;;;12.55;3.15;;;18.90;99.90;;;;;;5111103;28;20212;-60
2023/08/13 04:40:28;;;;;;;5.05;3.45;;;18.90;99.90;;;;;;5098777;28;20282;-60
2023/08/13 04:42:56;;;;;;;5.80;3.05;;;18.90;99.90;;;;;;5106159;28;20207;-59
2023/08/13 04:45:24;;;;;;;8.45;3.05;;;18.90;99.90;;;;;;5105777;28;20263;-56
2023/08/13 04:47:53;;;;;;;4.35;2.85;;;19.00;99.90;;;;;;5098336;28;20254;-57
2023/08/13 04:50:21;;;;;;;10.77;2.97;;;19.00;99.90;;;;;;5110876;28;20196;-57
2023/08/13 04:52:49;;;;;;;12.60;2.90;;;19.00;99.90;;;;;;5101082;28;20303;-58
2023/08/13 04:55:17;;;;;;;7.38;2.72;;;19.00;99.90;;;;;;5102715;28;20252;-59
2023/08/13 04:57:45;;;;;;;6.47;2.85;;;19.00;99.90;;;;;;5108708;28;20207;-60
2023/08/13 05:00:14;;;;;;;8.13;2.97;;;19.00;99.90;;;;;;5097534;28;20259;-59
2023/08/13 05:02:42;;;;;;;8.07;2.70;;;19.00;99.90;;;;;;5107449;28;20235;-64
2023/08/13 05:05:12;;;;;;;8.50;3.25;;;19.10;99.90;;;;;;5097737;28;20293;-57
2023/08/13 05:07:40;;;;;;;10.48;2.92;;;19.10;99.90;;;;;;5107902;28;20200;-58
2023/08/13 05:10:08;;;;;;;10.80;2.90;;;19.10;99.90;;;;;;5096951;28;20846;-57
2023/08/13 05:12:36;;;;;;;11.70;3.15;;;19.10;99.90;;;;;;5108163;28;20216;-57
2023/08/13 05:15:05;;;;;;;11.10;3.28;;;19.10;99.90;;;;;;5102741;28;20251;-57
2023/08/13 05:17:35;;;;;;;6.97;2.78;;;19.20;99.90;;;;;;5100472;28;20303;-59
2023/08/13 05:20:05;;;;;;;9.05;3.63;;;19.20;99.90;;;;;;5110279;28;20290;-60
2023/08/13 05:22:35;;;;;;;12.43;3.22;;;19.10;99.90;;;;;;5098373;28;20201;-59
2023/08/13 05:25:03;;;;;;;7.32;3.10;;;19.20;99.90;;;;;;5103900;28;20266;-57
2023/08/13 05:27:31;;;;;;;10.50;3.33;;;19.20;99.90;;;;;;5106588;28;20230;-58
2023/08/13 05:29:59;;;;;;;13.75;3.22;;;19.20;99.90;;;;;;5096499;28;20732;-57
2023/08/13 05:32:28;;;;;;;5.70;2.50;;;19.30;99.90;;;;;;5109255;28;20299;-57
2023/08/13 05:34:56;;;;;;;4.97;3.58;;;19.30;99.90;;;;;;5100904;28;20215;-58
2023/08/13 05:37:24;;;;;;;8.90;2.88;;;19.30;99.90;;;;;;5101123;28;20231;-61
2023/08/13 05:39:53;;;;;;;5.70;3.17;;;19.30;99.90;;;;;;5109176;28;20209;-60
2023/08/13 05:42:21;;;;;;;12.10;3.15;;;19.30;99.90;;;;;;5096662;28;20195;-56
2023/08/13 05:44:48;;;;;;;5.50;3.20;;;19.30;99.90;;;;;;5105547;28;20314;-58
2023/08/13 05:47:16;;;;;;;6.25;3.92;;;19.40;99.90;;;;;;5104046;28;20213;-57
2023/08/13 05:49:44;;;;;;;5.47;2.83;;;19.40;99.90;;;;;;5098172;28;20208;-58
2023/08/13 05:52:12;;;;;;;14.35;3.85;;;19.40;99.90;;;;;;5109372;28;20249;-59
2023/08/13 05:54:40;;;;;;;6.38;3.60;;;19.50;99.90;;;;;;5098197;28;20274;-59
2023/08/13 05:57:09;;;;;;;4.40;3.65;;;19.50;99.90;;;;;;5102956;28;20754;-59
2023/08/13 05:59:38;;;;;;;8.73;3.33;;;19.50;99.90;;;;;;5106539;28;20227;-60
2023/08/13 06:02:06;;;;;;;8.23;3.03;;;19.60;99.90;;;;;;5096337;28;20192;-61
2023/08/13 06:04:35;;;;;;;5.18;3.40;;;19.60;99.90;;;;;;5107322;28;20241;-61
2023/08/13 06:07:03;;;;;;;10.45;3.03;;;19.70;99.90;;;;;;5092958;28;20235;-61
2023/08/13 06:09:31;;;;;;;5.43;3.10;;;19.70;99.90;;;;;;5105715;28;20689;-61
2023/08/13 06:11:59;;;;;;;5.82;3.53;;;19.70;99.90;;;;;;5096186;28;20220;-61
2023/08/13 06:14:28;;;;;;;5.07;3.90;;;19.80;99.90;;;;;;5108352;28;20247;-61
2023/08/13 06:16:56;;;;;;;6.63;4.22;;;19.80;99.90;;;;;;5100591;28;20279;-61
2023/08/13 06:19:42;;;;;;;3.45;3.17;;;19.90;99.90;;;;;;5097505;28;20204;-61
2023/08/13 06:22:10;;;;;;;10.63;3.85;;;19.90;99.90;;;;;;5109563;28;20206;-61
2023/08/13 06:24:38;;;;;;;10.02;3.40;;;19.90;99.90;;;;;;5097860;28;20239;-61
2023/08/13 06:27:06;;;;;;;5.63;3.95;;;19.90;99.90;;;;;;5103053;28;20306;-61
2023/08/13 06:29:35;;;;;;;4.72;3.45;;;20.00;99.90;;;;;;5105702;28;20235;-61
2023/08/13 06:32:03;;;;;;;4.03;3.25;;;20.10;99.90;;;;;;5095786;28;20216;-61
2023/08/13 06:34:31;;;;;;;4.28;3.42;;;20.10;99.90;;;;;;5107445;28;20786;-61
2023/08/13 06:36:59;;;;;;;8.50;4.10;;;20.10;99.90;;;;;;5100925;28;20244;-61
2023/08/13 06:39:30;;;;;;;6.53;3.53;;;20.20;99.90;;;;;;5099476;28;20219;-61
2023/08/13 06:41:58;;;;;;;4.00;2.95;;;20.20;99.90;;;;;;5108839;28;20225;-61
2023/08/13 06:44:26;;;;;;;3.55;3.15;;;20.30;99.90;;;;;;5095881;28;20254;-61
2023/08/13 06:46:55;;;;;;;6.15;3.30;;;20.30;99.90;;;;;;5104163;28;20740;-62
2023/08/13 06:49:23;;;;;;;4.88;3.10;;;20.40;99.90;;;;;;5104133;28;20252;-61
2023/08/13 06:51:51;;;;;;;5.30;3.00;;;20.50;99.90;;;;;;5096472;28;20231;-61
2023/08/13 06:54:19;;;;;;;6.00;3.30;;;20.60;99.90;;;;;;5108576;28;20220;-61
2023/08/13 06:56:47;;;;;;;3.30;3.00;;;20.50;99.90;;;;;;5098652;28;20231;-61
2023/08/13 06:59:15;;;;;;;3.10;2.90;;;20.60;99.90;;;;;;5101314;28;20247;-61
2023/08/13 07:01:43;;;;;;;4.70;2.72;;;20.60;99.90;;;;;;5106886;28;20377;-61
2023/08/13 07:04:12;;;;;;;2.75;2.55;;;20.70;99.90;;;;;;5095184;28;20220;-61
2023/08/13 07:06:40;;;;;;;3.97;2.88;;;20.70;99.90;;;;;;5099363;28;20286;-61
2023/08/13 07:09:08;;;;;;;4.57;3.28;;;20.70;99.90;;;;;;5101863;28;20228;-61
2023/08/13 07:11:36;;;;;;;3.40;3.10;;;20.80;99.90;;;;;;5105894;28;20195;-61
2023/08/13 07:14:04;;;;;;;3.28;2.88;;;20.80;99.90;;;;;;5095242;28;20285;-61
2023/08/13 07:16:32;;;;;;;6.22;3.75;;;20.80;99.90;;;;;;5107011;28;20750;-61
2023/08/13 07:19:00;;;;;;;2.70;2.60;;;20.90;99.90;;;;;;5100457;28;20204;-61
2023/08/13 07:21:30;;;;;;;3.83;3.10;;;21.00;99.90;;;;;;5099079;28;20207;-61
2023/08/13 07:23:58;;;;;;;6.80;3.33;;;21.00;99.90;;;;;;5108587;28;20306;-61
2023/08/13 07:26:26;;;;;;;4.47;3.20;;;21.10;99.90;;;;;;5095615;28;20195;-61
2023/08/13 07:28:53;;;;;;;3.17;2.90;;;21.10;99.90;;;;;;5103976;28;20578;-61
2023/08/13 07:31:21;;;;;;;3.85;3.30;;;21.20;99.90;;;;;;5106313;28;20286;-61
2023/08/13 07:33:49;;;;;;;3.25;3.05;;;21.20;99.90;;;;;;5100035;28;20227;-62
2023/08/13 07:36:17;;;;;;;3.00;2.90;;;21.20;99.90;;;;;;5112152;28;20257;-61
2023/08/13 07:38:47;;;;;;;4.55;2.95;;;21.20;99.90;;;;;;5102516;28;20245;-61
2023/08/13 07:41:15;;;;;;;2.85;2.65;;;21.20;99.90;;;;;;5104886;28;20689;-61
2023/08/13 07:43:44;;;;;;;3.40;2.67;;;21.30;99.90;;;;;;5110266;28;20223;-61
2023/08/13 07:46:12;;;;;;;4.85;2.63;;;21.30;99.90;;;;;;5098664;28;20290;-61
2023/08/13 07:48:40;;;;;;;2.75;2.55;;;21.40;99.90;;;;;;5109544;28;20196;-61
2023/08/13 07:51:08;;;;;;;3.00;2.75;;;21.40;99.90;;;;;;5105268;28;20260;-61
2023/08/13 07:53:36;;;;;;;2.53;2.40;;;21.50;99.90;;;;;;5101621;28;20255;-61
2023/08/13 07:56:05;;;;;;;2.45;2.28;;;21.60;99.90;;;;;;5111900;28;20204;-61
2023/08/13 07:58:33;;;;;;;4.28;3.00;;;21.60;99.90;;;;;;5100399;28;20191;-61
2023/08/13 08:01:02;;;;;;;5.20;2.85;;;21.70;99.90;;;;;;5106566;28;20255;-61
2023/08/13 08:03:30;;;;;;;5.22;2.80;;;21.80;99.90;;;;;;5107958;28;20601;-61
2023/08/13 08:05:58;;;;;;;3.08;2.90;;;21.90;99.90;;;;;;5098057;28;20678;-61
2023/08/13 08:08:26;;;;;;;4.07;2.78;;;21.90;99.90;;;;;;5099140;28;20199;-61
2023/08/13 08:10:54;;;;;;;4.05;3.17;;;21.90;99.90;;;;;;5107469;28;20294;-61
2023/08/13 08:13:23;;;;;;;4.30;2.90;;;21.90;99.90;;;;;;5106737;28;20666;-61
2023/08/13 08:15:51;;;;;;;2.85;2.58;;;22.00;99.90;;;;;;5099178;28;20200;-61
2023/08/13 08:18:19;;;;;;;2.97;2.78;;;21.90;99.90;;;;;;5112005;28;20200;-61
2023/08/13 08:20:47;;;;;;;3.40;3.10;;;21.90;99.90;;;;;;5102130;28;20274;-61
2023/08/13 08:23:16;;;;;;;3.15;2.85;;;21.90;99.90;;;;;;5104100;28;20638;-61
2023/08/13 08:25:44;;;;;;;4.50;3.35;;;22.00;99.90;;;;;;5110382;28;20203;-61
2023/08/13 08:28:12;;;;;;;3.45;3.00;;;22.00;99.90;;;;;;5098230;28;20217;-61
2023/08/13 08:30:41;;;;;;;6.38;2.83;;;22.10;99.90;;;;;;5109533;28;20228;-61
2023/08/13 08:33:10;;;;;;;3.88;3.55;;;22.30;99.90;;;;;;5104953;28;20247;-62
2023/08/13 08:35:38;;;;;;;3.33;3.03;;;22.50;99.90;;;;;;5100822;28;20283;-61
2023/08/13 08:38:06;;;;;;;4.63;2.75;;;22.60;99.90;;;;;;5111626;28;20293;-62
2023/08/13 08:40:34;;;;;;;3.70;2.50;;;22.80;99.90;;;;;;5100092;28;20259;-62
2023/08/13 08:43:02;;;;;;;3.63;2.20;;;22.90;99.90;;;;;;5105186;28;20203;-62
2023/08/13 08:45:30;;;;;;;2.83;2.28;;;23.00;99.90;;;;;;5107157;28;20310;-62
2023/08/13 08:47:59;;;;;;;2.50;2.30;;;23.10;99.90;;;;;;5098229;28;20200;-61
2023/08/13 08:50:27;;;;;;;5.30;2.85;;;23.10;99.90;;;;;;5098762;28;20287;-62
2023/08/13 08:52:56;;;;;;;3.13;2.35;;;23.10;99.90;;;;;;5106818;28;20275;-62
2023/08/13 08:55:24;;;;;;;4.00;2.67;;;23.20;99.90;;;;;;5106096;28;20243;-62
2023/08/13 08:57:54;;;;;;;4.60;2.38;;;23.20;99.90;;;;;;5098918;28;20665;-62
2023/08/13 09:00:23;;;;;;;2.78;2.47;;;23.30;99.90;;;;;;5081839;28;20767;-61
2023/08/13 09:02:50;;;;;;;1.90;1.80;;;23.40;99.90;;;;;;5107364;28;20572;-62
2023/08/13 09:05:21;;;;;;;5.07;2.40;;;23.40;99.90;;;;;;5098244;28;20600;-61
2023/08/13 09:07:50;;;;;;;2.45;2.35;;;23.50;99.90;;;;;;5109808;28;20272;-61
2023/08/13 09:10:18;;;;;;;3.15;2.55;;;23.50;99.90;;;;;;5097451;28;20734;-62
2023/08/13 09:12:46;;;;;;;3.47;2.75;;;23.50;99.90;;;;;;5107800;28;20236;-62
2023/08/13 09:15:14;;;;;;;2.92;2.72;;;23.70;99.90;;;;;;5105279;28;20302;-62
2023/08/13 09:17:42;;;;;;;3.65;2.40;;;23.80;99.90;;;;;;5100181;28;20711;-62
2023/08/13 09:20:10;;;;;;;7.88;2.50;;;24.00;99.90;;;;;;5111144;28;20286;-62
2023/08/13 09:22:40;;;;;;;2.75;2.38;;;24.00;99.90;;;;;;5100290;28;20248;-62
2023/08/13 09:25:09;;;;;;;2.92;2.42;;;24.10;99.90;;;;;;5103827;28;20706;-62
2023/08/13 09:27:37;;;;;;;2.10;2.00;;;24.20;99.90;;;;;;5108461;28;20235;-62
2023/08/13 09:30:06;;;;;;;2.47;2.38;;;24.30;99.90;;;;;;5096883;28;20738;-62
2023/08/13 09:32:34;;;;;;;5.05;2.47;;;24.30;99.90;;;;;;5108742;28;20249;-62
2023/08/13 09:35:03;;;;;;;2.78;2.40;;;24.40;99.90;;;;;;5102033;28;20596;-62
2023/08/13 09:37:31;;;;;;;5.70;2.10;;;24.50;99.90;;;;;;5100757;28;20284;-62
2023/08/13 09:40:00;;;;;;;5.93;2.47;;;24.60;99.90;;;;;;5109877;28;20235;-62
2023/08/13 09:42:28;;;;;;;3.17;2.60;;;24.70;99.90;;;;;;5097797;28;20203;-62
2023/08/13 09:44:58;;;;;;;5.53;2.15;;;24.80;99.90;;;;;;5105116;28;20327;-62
2023/08/13 09:47:26;;;;;;;2.30;2.10;;;24.90;99.90;;;;;;5105452;28;20608;-62
2023/08/13 09:49:56;;;;;;;5.15;2.63;;;24.90;99.90;;;;;;5096753;28;20742;-62
2023/08/13 09:52:27;;;;;;;2.80;2.20;;;25.00;99.90;;;;;;5080541;28;20223;-62
2023/08/13 09:55:01;;;;;;;5.72;2.10;;;25.20;99.90;;;;;;5103566;28;20726;-62
2023/08/13 09:57:28;;;;;;;2.10;2.00;;;25.40;99.90;;;;;;5105982;28;20276;-62
2023/08/13 09:59:56;;;;;;;5.15;2.38;;;25.50;99.90;;;;;;5096244;28;20227;-62
2023/08/13 10:02:24;;;;;;;3.35;2.53;;;25.40;99.90;;;;;;5080262;28;20728;-62
2023/08/13 10:04:52;;;;;;;5.15;2.10;;;25.40;99.90;;;;;;5104973;28;20290;-62
2023/08/13 10:07:20;;;;;;;8.23;2.80;;;25.40;99.90;;;;;;5092963;28;20204;-62
2023/08/13 10:09:48;;;;;;;2.47;2.28;;;25.30;99.90;;;;;;5108219;28;20250;-62
2023/08/13 10:12:34;;;;;;;5.13;2.10;;;25.30;99.90;;;;;;5082465;28;20566;-62
2023/08/13 10:15:02;;;;;;;5.07;2.22;;;25.40;99.90;;;;;;5103479;28;20253;-62
2023/08/13 10:17:30;;;;;;;2.63;2.20;;;25.30;99.90;;;;;;5105891;28;20196;-62
2023/08/13 10:19:58;;;;;;;4.28;2.55;;;25.30;99.90;;;;;;5096141;28;20261;-62
2023/08/13 10:22:31;;;;;;;4.43;2.83;;;25.40;99.90;;;;;;5108919;28;20249;-62
2023/08/13 10:25:00;;;;;;;2.70;2.30;;;25.50;99.90;;;;;;5100579;28;20294;-62
2023/08/13 10:27:28;;;;;;;3.63;2.42;;;25.50;99.90;;;;;;5100295;28;20257;-62
2023/08/13 10:30:08;;;;;;;3.38;2.70;;;25.50;99.90;;;;;;5109121;28;20227;-62
2023/08/13 10:32:38;;;;;;;2.83;2.58;;;25.50;99.90;;;;;;5083296;28;20199;-62
2023/08/13 10:35:21;;;;;;;4.45;2.83;;;25.60;99.90;;;;;;5102287;28;20627;-62
2023/08/13 10:37:53;;;;;;;4.22;2.33;;;25.60;99.90;;;;;;5108083;28;20653;-62
2023/08/13 10:40:21;;;;;;;2.97;2.40;;;25.60;99.90;;;;;;5095709;28;20230;-62
2023/08/13 10:42:50;;;;;;;2.45;2.25;;;25.50;99.90;;;;;;5105257;28;20362;-62
2023/08/13 10:45:20;;;;;;;4.35;2.55;;;25.50;99.90;;;;;;5102944;28;20273;-62
2023/08/13 10:47:50;;;;;;;3.38;2.63;;;25.60;99.90;;;;;;5096700;28;20287;-62
2023/08/13 10:50:23;;;;;;;5.80;2.33;;;25.70;99.90;;;;;;5108683;28;20196;-62
2023/08/13 10:52:52;;;;;;;2.75;2.03;;;25.80;99.90;;;;;;5099609;28;20196;-62
2023/08/13 10:55:22;;;;;;;3.55;2.05;;;25.80;99.90;;;;;;5100244;28;20228;-61
2023/08/13 10:57:51;;;;;;;4.18;2.15;;;25.90;99.90;;;;;;5107851;28;20199;-62
2023/08/13 11:00:22;;;;;;;2.55;2.20;;;26.00;99.90;;;;;;5095180;28;20264;-62
2023/08/13 11:02:53;;;;;;;3.40;1.80;;;26.10;99.90;;;;;;5105020;28;20231;-61
2023/08/13 11:05:21;;;;;;;3.97;1.88;;;26.10;99.90;;;;;;5095290;28;20220;-62
2023/08/13 11:07:50;;;;;;;2.85;1.75;;;26.10;99.90;;;;;;5107745;28;20215;-61
2023/08/13 11:10:19;;;;;;;3.95;2.00;;;26.20;99.90;;;;;;5095067;28;20282;-62
2023/08/13 11:12:47;;;;;;;3.42;1.80;;;26.40;99.90;;;;;;5104998;28;20220;-62
2023/08/13 11:15:15;;;;;;;2.15;1.95;;;26.50;99.90;;;;;;5102375;28;20257;-61
2023/08/13 11:17:46;;;;;;;1.95;1.67;;;26.40;99.90;;;;;;5097384;28;20235;-62
2023/08/13 11:20:17;;;;;;;3.60;1.75;;;26.40;99.90;;;;;;5108536;28;20576;-62
2023/08/13 11:22:45;;;;;;;2.95;1.70;;;26.40;99.90;;;;;;5098534;28;20198;-62
2023/08/13 11:25:13;;;;;;;2.47;1.23;;;26.50;99.90;;;;;;5100770;28;20215;-62
2023/08/13 11:27:42;;;;;;;3.40;1.50;;;26.50;99.90;;;;;;5106461;28;20754;-62
2023/08/13 11:30:11;;;;;;;3.72;1.40;;;26.50;99.90;;;;;;5094885;28;20203;-62
2023/08/13 11:32:39;;;;;;;4.57;1.50;;;26.70;99.90;;;;;;5106219;28;20662;-62
2023/08/13 11:35:09;;;;;;;5.00;1.50;;;26.70;99.90;;;;;;5100974;28;20296;-61
2023/08/13 11:37:37;;;;;;;4.38;1.58;;;26.50;99.90;;;;;;5097889;28;20203;-62
2023/08/13 11:40:09;;;;;;;3.47;1.45;;;26.40;99.90;;;;;;5108052;28;20258;-62
2023/08/13 11:42:37;;;;;;;3.60;1.63;;;26.20;99.90;;;;;;5097330;28;20200;-62
2023/08/13 11:45:11;;;;;;;3.47;1.23;;;26.10;99.90;;;;;;5101650;28;20322;-62
2023/08/13 11:47:39;;;;;;;2.80;1.17;;;26.00;99.90;;;;;;5105919;28;20198;-62
2023/08/13 11:50:18;;;;;;;1.92;1.23;;;25.90;99.90;;;;;;5094685;28;20200;-62
2023/08/13 11:53:02;;;;;;;2.00;1.30;;;25.90;99.90;;;;;;5105096;28;20657;-62
2023/08/13 11:55:30;;;;;;;1.27;1.15;;;25.90;99.90;;;;;;5104009;28;20280;-62
2023/08/13 11:57:58;;;;;;;3.35;1.50;;;26.10;99.90;;;;;;5094907;28;20289;-62
2023/08/13 12:00:26;;;;;;;2.55;1.40;;;26.20;99.90;;;;;;5107424;28;20196;-62
2023/08/13 12:02:55;;;;;;;4.80;1.83;;;26.40;99.90;;;;;;5099287;28;20224;-62
2023/08/13 12:05:28;;;;;;;2.03;1.52;;;26.50;99.90;;;;;;5098809;28;20599;-61
2023/08/13 12:07:56;;;;;;;2.17;1.55;;;26.60;99.90;;;;;;5091393;28;20287;-62
2023/08/13 12:10:24;;;;;;;1.77;1.67;;;26.70;99.90;;;;;;5078473;28;20666;-62
2023/08/13 12:12:52;;;;;;;3.25;1.30;;;26.70;99.90;;;;;;5103939;28;20192;-61
2023/08/13 12:15:22;;;;;;;3.58;1.50;;;26.70;99.90;;;;;;5102163;28;20337;-62
2023/08/13 12:17:50;;;;;;;1.92;1.60;;;26.70;99.90;;;;;;5097734;28;20218;-62
2023/08/13 12:20:18;;;;;;;4.85;1.45;;;26.90;99.90;;;;;;5111771;28;20283;-62
2023/08/13 12:22:47;;;;;;;3.85;1.60;;;27.00;99.90;;;;;;5102026;28;20249;-61
2023/08/13 12:25:15;;;;;;;1.52;1.42;;;27.00;99.90;;;;;;5103865;28;20251;-62
2023/08/13 12:27:43;;;;;;;1.35;1.20;;;27.00;99.90;;;;;;5109814;28;20283;-61
2023/08/13 12:30:11;;;;;;;1.40;1.30;;;27.00;99.90;;;;;;5098133;28;20228;-62
2023/08/13 12:32:39;;;;;;;3.08;1.52;;;27.00;99.90;;;;;;5109216;28;20192;-62
2023/08/13 12:35:09;;;;;;;3.08;1.70;;;27.00;99.90;;;;;;5104223;28;20245;-61
2023/08/13 12:37:37;;;;;;;2.72;1.48;;;27.10;99.90;;;;;;5100838;28;20200;-62
2023/08/13 12:40:10;;;;;;;2.75;1.60;;;27.60;99.90;;;;;;5111279;28;20302;-61
2023/08/13 12:42:38;;;;;;;2.50;1.60;;;28.00;99.90;;;;;;5099932;28;20199;-62
2023/08/13 12:45:07;;;;;;;3.13;2.05;;;28.60;99.90;;;;;;5104387;28;20311;-62
2023/08/13 12:47:35;;;;;;;3.53;1.45;;;29.40;99.90;;;;;;5087563;28;20256;-61
2023/08/13 12:50:03;;;;;;;1.98;1.40;;;29.90;99.90;;;;;;5093802;28;20212;-62
2023/08/13 12:52:31;;;;;;;2.67;1.55;;;30.00;99.90;;;;;;5094487;28;20636;-62